createdAt,value
2016-10-09T00:00:04.774Z,8.36
2016-10-09T00:00:46.560Z,8.43
2016-10-09T00:01:28.151Z,8.38
2016-10-09T00:02:09.783Z,8.3
2016-10-09T00:02:51.509Z,8.45
2016-10-09T00:03:33.082Z,8.4
2016-10-09T00:05:12.151Z,8.4
2016-10-09T00:05:53.915Z,8.36
2016-10-09T00:06:35.685Z,8.3
2016-10-09T00:07:17.431Z,8.38
2016-10-09T00:07:59.088Z,8.36
2016-10-09T00:08:40.826Z,8.36
2016-10-09T00:09:22.658Z,8.33
2016-10-09T00:10:04.242Z,8.4
2016-10-09T00:10:45.919Z,8.33
2016-10-09T00:11:27.432Z,8.4
2016-10-09T00:12:09.229Z,8.38
2016-10-09T00:12:50.899Z,8.4
2016-10-09T00:13:32.716Z,8.4
2016-10-09T00:14:14.434Z,8.33
2016-10-09T00:14:56.171Z,8.37
2016-10-09T00:16:45.516Z,8.4
2016-10-09T00:17:27.218Z,8.28
2016-10-09T00:18:08.930Z,8.33
2016-10-09T00:18:50.609Z,8.33
2016-10-09T00:19:32.374Z,8.28
2016-10-09T00:20:14.016Z,8.28
2016-10-09T00:20:55.720Z,8.23
2016-10-09T00:21:37.328Z,8.25
2016-10-09T00:23:32.143Z,8.3
2016-10-09T00:24:13.826Z,8.3
2016-10-09T00:24:55.430Z,8.33
2016-10-09T00:25:37.203Z,8.3
2016-10-09T00:26:19.055Z,8.3
2016-10-09T00:28:34.269Z,8.3
2016-10-09T00:29:16.038Z,8.3
2016-10-09T00:29:57.742Z,8.36
2016-10-09T00:30:39.451Z,8.29
2016-10-09T00:31:21.140Z,8.29
2016-10-09T00:32:02.801Z,8.29
2016-10-09T00:33:42.112Z,8.29
2016-10-09T00:34:23.585Z,8.28
2016-10-09T00:36:23.553Z,8.23
2016-10-09T00:37:05.142Z,8.2
2016-10-09T00:37:46.763Z,8.22
2016-10-09T00:38:28.273Z,8.23
2016-10-09T00:39:09.913Z,8.23
2016-10-09T00:39:51.648Z,8.22
2016-10-09T00:40:33.331Z,8.26
2016-10-09T00:42:33.376Z,8.29
2016-10-09T00:43:15.095Z,8.23
2016-10-09T00:43:56.803Z,8.29
2016-10-09T00:44:38.505Z,8.3
2016-10-09T00:45:20.189Z,8.29
2016-10-09T00:46:01.902Z,8.22
2016-10-09T00:46:43.634Z,8.33
2016-10-09T00:48:59.026Z,8.36
2016-10-09T00:49:40.749Z,8.3
2016-10-09T00:50:22.419Z,8.25
2016-10-09T00:51:04.156Z,8.28
2016-10-09T00:51:45.788Z,8.25
2016-10-09T00:52:27.456Z,8.3
2016-10-09T00:54:22.181Z,8.28
2016-10-09T00:55:03.947Z,8.28
2016-10-09T00:55:45.623Z,8.26
2016-10-09T00:56:27.166Z,8.28
2016-10-09T00:57:07.879Z,8.29
2016-10-09T00:57:48.396Z,8.28
2016-10-09T00:58:28.909Z,8.25
2016-10-09T00:59:09.441Z,8.28
2016-10-09T00:59:49.944Z,8.29
2016-10-09T01:00:30.476Z,8.3
2016-10-09T01:01:10.997Z,8.29
2016-10-09T01:01:51.534Z,8.26
2016-10-09T01:02:32.063Z,8.29
2016-10-09T01:03:12.579Z,8.34
2016-10-09T01:03:53.114Z,8.25
2016-10-09T01:04:33.646Z,8.34
2016-10-09T01:05:14.149Z,8.43
2016-10-09T01:05:54.675Z,8.36
2016-10-09T01:06:35.196Z,8.26
2016-10-09T01:07:15.746Z,8.3
2016-10-09T01:07:56.263Z,8.25
2016-10-09T01:08:36.796Z,8.33
2016-10-09T01:09:17.324Z,8.3
2016-10-09T01:09:57.855Z,8.28
2016-10-09T01:10:38.375Z,8.33
2016-10-09T01:11:18.926Z,8.3
2016-10-09T01:11:59.475Z,8.28
2016-10-09T01:12:40.022Z,8.34
2016-10-09T01:13:20.550Z,8.33
2016-10-09T01:14:01.086Z,8.28
2016-10-09T01:14:41.641Z,8.3
2016-10-09T01:15:22.157Z,8.23
2016-10-09T01:16:02.690Z,8.3
2016-10-09T01:16:43.212Z,8.25
2016-10-09T01:17:23.751Z,8.25
2016-10-09T01:18:04.299Z,8.29
2016-10-09T01:18:44.828Z,8.25
2016-10-09T01:19:25.363Z,8.29
2016-10-09T01:20:05.906Z,8.37
2016-10-09T01:20:46.417Z,8.3
2016-10-09T01:21:26.962Z,8.26
2016-10-09T01:22:07.481Z,8.3
2016-10-09T01:22:48.016Z,8.37
2016-10-09T01:23:28.554Z,8.29
2016-10-09T01:24:09.096Z,8.3
2016-10-09T01:24:49.630Z,8.34
2016-10-09T01:25:30.162Z,8.36
2016-10-09T01:26:10.715Z,8.34
2016-10-09T01:26:51.244Z,8.28
2016-10-09T01:27:31.777Z,8.36
2016-10-09T01:28:12.308Z,8.36
2016-10-09T01:28:52.818Z,8.23
2016-10-09T01:29:33.344Z,8.36
2016-10-09T01:30:13.871Z,8.26
2016-10-09T01:30:54.414Z,8.3
2016-10-09T01:31:34.949Z,8.34
2016-10-09T01:32:15.489Z,8.29
2016-10-09T01:32:56.031Z,8.29
2016-10-09T01:33:36.574Z,8.28
2016-10-09T01:34:17.113Z,8.34
2016-10-09T01:34:57.648Z,8.34
2016-10-09T01:35:38.179Z,8.33
2016-10-09T01:36:18.714Z,8.33
2016-10-09T01:36:59.259Z,8.23
2016-10-09T01:37:39.809Z,8.36
2016-10-09T01:38:20.297Z,8.29
2016-10-09T01:39:00.814Z,8.3
2016-10-09T01:39:41.360Z,8.28
2016-10-09T01:40:21.909Z,8.22
2016-10-09T01:41:02.449Z,8.3
2016-10-09T01:41:42.972Z,8.3
2016-10-09T01:42:23.498Z,8.22
2016-10-09T01:43:04.061Z,8.28
2016-10-09T01:43:44.585Z,8.25
2016-10-09T01:44:25.112Z,8.22
2016-10-09T01:45:05.657Z,8.28
2016-10-09T01:45:46.190Z,8.34
2016-10-09T01:46:26.714Z,8.22
2016-10-09T01:47:07.265Z,8.23
2016-10-09T01:47:47.823Z,8.26
2016-10-09T01:48:28.359Z,8.26
2016-10-09T01:49:08.884Z,8.26
2016-10-09T01:49:49.405Z,8.23
2016-10-09T01:50:29.925Z,8.25
2016-10-09T01:51:10.461Z,8.26
2016-10-09T01:51:50.980Z,8.23
2016-10-09T01:52:31.517Z,8.29
2016-10-09T01:53:12.071Z,8.23
2016-10-09T01:53:52.607Z,8.2
2016-10-09T01:54:33.136Z,8.19
2016-10-09T01:55:13.670Z,8.23
2016-10-09T01:55:54.195Z,8.23
2016-10-09T01:56:34.739Z,8.26
2016-10-09T01:57:15.268Z,8.28
2016-10-09T01:57:55.810Z,8.23
2016-10-09T01:58:36.352Z,8.2
2016-10-09T01:59:16.888Z,8.2
2016-10-09T01:59:57.426Z,8.22
2016-10-09T02:00:37.977Z,8.22
2016-10-09T02:01:18.492Z,8.25
2016-10-09T02:01:59.026Z,8.25
2016-10-09T02:02:39.555Z,8.2
2016-10-09T02:03:20.085Z,8.23
2016-10-09T02:04:00.629Z,8.11
2016-10-09T02:04:41.162Z,8.16
2016-10-09T02:05:21.689Z,8.11
2016-10-09T02:06:02.207Z,8.25
2016-10-09T02:06:42.738Z,8.18
2016-10-09T02:07:23.263Z,8.23
2016-10-09T02:08:03.795Z,8.2
2016-10-09T02:08:44.330Z,8.11
2016-10-09T02:09:24.859Z,8.11
2016-10-09T02:10:05.389Z,8.22
2016-10-09T02:10:45.920Z,8.11
2016-10-09T02:11:26.447Z,8.12
2016-10-09T02:12:06.958Z,8.18
2016-10-09T02:12:47.469Z,8.16
2016-10-09T02:13:28.010Z,8.18
2016-10-09T02:14:08.531Z,8.19
2016-10-09T02:14:49.076Z,8.16
2016-10-09T02:15:29.627Z,8.15
2016-10-09T02:16:10.168Z,8.2
2016-10-09T02:16:50.706Z,8.15
2016-10-09T02:17:31.239Z,8.2
2016-10-09T02:18:11.780Z,8.19
2016-10-09T02:18:52.298Z,8.16
2016-10-09T02:19:32.844Z,8.2
2016-10-09T02:20:13.388Z,8.08
2016-10-09T02:20:53.921Z,8.18
2016-10-09T02:21:34.463Z,8.19
2016-10-09T02:22:15.005Z,8.15
2016-10-09T02:22:55.517Z,8.07
2016-10-09T02:23:36.082Z,8.12
2016-10-09T02:24:16.617Z,8.12
2016-10-09T02:24:57.153Z,8.23
2016-10-09T02:25:37.684Z,8.12
2016-10-09T02:26:18.222Z,8.15
2016-10-09T02:26:58.742Z,8.15
2016-10-09T02:27:39.256Z,8.12
2016-10-09T02:28:19.796Z,8.18
2016-10-09T02:29:00.304Z,8.1
2016-10-09T02:29:40.832Z,8.12
2016-10-09T02:30:21.362Z,8.11
2016-10-09T02:31:01.912Z,8.08
2016-10-09T02:31:42.425Z,8.15
2016-10-09T02:32:22.922Z,8.11
2016-10-09T02:33:03.515Z,8.05
2016-10-09T02:33:44.039Z,8.05
2016-10-09T02:34:24.560Z,8.05
2016-10-09T02:35:05.095Z,8.07
2016-10-09T02:35:45.627Z,8.12
2016-10-09T02:36:26.160Z,8.11
2016-10-09T02:37:06.695Z,8.11
2016-10-09T02:37:47.246Z,8.15
2016-10-09T02:38:27.782Z,8
2016-10-09T02:39:08.315Z,8.04
2016-10-09T02:39:48.855Z,8.05
2016-10-09T02:40:29.394Z,8.05
2016-10-09T02:41:09.932Z,8.07
2016-10-09T02:41:50.464Z,8.07
2016-10-09T02:42:31.006Z,8.01
2016-10-09T02:43:11.541Z,8.08
2016-10-09T02:43:52.069Z,8.05
2016-10-09T02:44:32.609Z,8.05
2016-10-09T02:45:13.144Z,8.07
2016-10-09T02:45:53.680Z,8.07
2016-10-09T02:46:34.219Z,8.04
2016-10-09T02:47:14.757Z,8.05
2016-10-09T02:47:55.305Z,8.07
2016-10-09T02:48:35.833Z,8.08
2016-10-09T02:49:16.372Z,8.04
2016-10-09T02:49:56.910Z,8.01
2016-10-09T02:50:37.466Z,8.07
2016-10-09T02:51:17.982Z,8.07
2016-10-09T02:51:58.517Z,8.08
2016-10-09T02:52:39.053Z,8.04
2016-10-09T02:53:19.602Z,8.11
2016-10-09T02:54:00.140Z,8.15
2016-10-09T02:54:40.678Z,8.11
2016-10-09T02:55:21.209Z,8.07
2016-10-09T02:56:01.733Z,8.16
2016-10-09T02:56:42.274Z,8.11
2016-10-09T02:57:22.784Z,8.18
2016-10-09T02:58:03.322Z,8.15
2016-10-09T02:58:43.849Z,8.1
2016-10-09T02:59:24.369Z,8.1
2016-10-09T03:00:04.898Z,8.16
2016-10-09T03:00:45.431Z,8.08
2016-10-09T03:01:25.972Z,8.1
2016-10-09T03:02:06.507Z,8.1
2016-10-09T03:02:47.073Z,8.15
2016-10-09T03:03:27.593Z,8.05
2016-10-09T03:04:08.130Z,8.11
2016-10-09T03:04:48.670Z,8.07
2016-10-09T03:05:29.208Z,8.05
2016-10-09T03:06:09.732Z,8.04
2016-10-09T03:06:50.281Z,8.12
2016-10-09T03:07:30.825Z,8.1
2016-10-09T03:08:11.357Z,8.15
2016-10-09T03:08:51.898Z,8.08
2016-10-09T03:09:32.431Z,8.04
2016-10-09T03:10:12.973Z,8.11
2016-10-09T03:10:53.483Z,8.16
2016-10-09T03:11:34.024Z,8.05
2016-10-09T03:12:14.546Z,8.16
2016-10-09T03:12:55.079Z,8.15
2016-10-09T03:13:35.616Z,8.07
2016-10-09T03:14:16.157Z,8.07
2016-10-09T03:14:56.682Z,8.05
2016-10-09T03:15:37.218Z,8.16
2016-10-09T03:16:17.745Z,8.1
2016-10-09T03:16:58.279Z,8.15
2016-10-09T03:17:38.797Z,8.05
2016-10-09T03:18:19.330Z,8.15
2016-10-09T03:18:59.870Z,8.07
2016-10-09T03:19:40.386Z,8.04
2016-10-09T03:20:21.821Z,8.08
2016-10-09T03:21:02.360Z,8.08
2016-10-09T03:21:42.896Z,8.12
2016-10-09T03:22:23.413Z,8.12
2016-10-09T03:23:03.937Z,8.04
2016-10-09T03:23:44.472Z,8.12
2016-10-09T03:24:25.010Z,8
2016-10-09T03:25:05.547Z,8.1
2016-10-09T03:25:46.095Z,8
2016-10-09T03:26:26.646Z,8.12
2016-10-09T03:27:07.162Z,8.07
2016-10-09T03:27:47.706Z,8.04
2016-10-09T03:28:28.246Z,8.07
2016-10-09T03:29:08.765Z,8.11
2016-10-09T03:29:49.300Z,8.1
2016-10-09T03:30:29.863Z,8.07
2016-10-09T03:31:10.402Z,8.15
2016-10-09T03:31:50.951Z,8.01
2016-10-09T03:32:31.476Z,8.07
2016-10-09T03:33:12.005Z,8.1
2016-10-09T03:33:52.543Z,8.04
2016-10-09T03:34:33.078Z,8.15
2016-10-09T03:35:13.611Z,8.02
2016-10-09T03:35:54.157Z,8.11
2016-10-09T03:36:34.717Z,8.15
2016-10-09T03:37:15.247Z,8.07
2016-10-09T03:37:55.792Z,8.15
2016-10-09T03:38:36.340Z,7.98
2016-10-09T03:39:16.873Z,8.02
2016-10-09T03:39:57.407Z,8.08
2016-10-09T03:40:37.959Z,8.08
2016-10-09T03:41:18.500Z,8.11
2016-10-09T03:41:59.027Z,8.02
2016-10-09T03:42:39.551Z,8.11
2016-10-09T03:43:20.088Z,8.11
2016-10-09T03:44:00.622Z,8.05
2016-10-09T03:44:41.171Z,8.02
2016-10-09T03:45:21.696Z,8.04
2016-10-09T03:46:02.227Z,8.15
2016-10-09T03:46:42.769Z,8.1
2016-10-09T03:47:23.327Z,8.08
2016-10-09T03:48:03.840Z,8.02
2016-10-09T03:48:44.371Z,8.07
2016-10-09T03:49:24.919Z,8.11
2016-10-09T03:50:05.438Z,8.08
2016-10-09T03:50:45.966Z,8.05
2016-10-09T03:51:26.502Z,8.07
2016-10-09T03:52:07.066Z,7.95
2016-10-09T03:52:47.585Z,8.04
2016-10-09T03:53:28.127Z,8.07
2016-10-09T03:54:08.678Z,8.07
2016-10-09T03:54:49.218Z,8.05
2016-10-09T03:55:29.740Z,8.04
2016-10-09T03:56:10.282Z,8.05
2016-10-09T03:56:50.832Z,8.11
2016-10-09T03:57:31.391Z,8.08
2016-10-09T03:58:11.934Z,8.07
2016-10-09T03:58:52.473Z,8.04
2016-10-09T03:59:33.023Z,7.98
2016-10-09T04:00:13.567Z,8.07
2016-10-09T04:00:54.104Z,7.95
2016-10-09T04:01:34.643Z,8.07
2016-10-09T04:02:15.173Z,7.95
2016-10-09T04:02:55.708Z,8
2016-10-09T04:03:36.232Z,7.93
2016-10-09T04:04:16.806Z,7.9
2016-10-09T04:04:57.342Z,7.9
2016-10-09T04:05:37.888Z,7.98
2016-10-09T04:06:18.400Z,8.04
2016-10-09T04:06:58.909Z,7.93
2016-10-09T04:07:39.439Z,7.92
2016-10-09T04:08:19.980Z,7.93
2016-10-09T04:09:00.515Z,7.98
2016-10-09T04:09:41.060Z,8
2016-10-09T04:10:21.585Z,8.04
2016-10-09T04:11:02.132Z,7.95
2016-10-09T04:11:42.654Z,8.01
2016-10-09T04:12:23.191Z,8.01
2016-10-09T04:13:03.734Z,8.01
2016-10-09T04:13:44.291Z,8.01
2016-10-09T04:14:24.821Z,7.93
2016-10-09T04:15:05.349Z,7.93
2016-10-09T04:15:45.875Z,7.93
2016-10-09T04:16:26.454Z,7.98
2016-10-09T04:17:06.980Z,7.92
2016-10-09T04:17:47.509Z,7.95
2016-10-09T04:18:28.047Z,7.95
2016-10-09T04:19:08.594Z,7.95
2016-10-09T04:19:49.139Z,7.92
2016-10-09T04:20:29.655Z,7.93
2016-10-09T04:21:10.199Z,7.9
2016-10-09T04:21:50.727Z,7.93
2016-10-09T04:22:31.267Z,8.04
2016-10-09T04:23:11.813Z,7.93
2016-10-09T04:23:52.329Z,7.98
2016-10-09T04:24:32.867Z,7.97
2016-10-09T04:25:13.400Z,7.9
2016-10-09T04:25:53.937Z,8.02
2016-10-09T04:26:34.474Z,7.92
2016-10-09T04:27:14.993Z,7.98
2016-10-09T04:27:55.565Z,7.98
2016-10-09T04:28:36.070Z,7.9
2016-10-09T04:29:16.596Z,7.95
2016-10-09T04:29:57.124Z,7.89
2016-10-09T04:30:37.656Z,7.9
2016-10-09T04:31:18.173Z,7.92
2016-10-09T04:31:58.688Z,7.95
2016-10-09T04:32:39.218Z,7.92
2016-10-09T04:33:19.757Z,7.9
2016-10-09T04:34:00.296Z,7.97
2016-10-09T04:34:40.833Z,7.9
2016-10-09T04:35:21.372Z,7.98
2016-10-09T04:36:01.886Z,7.93
2016-10-09T04:36:42.415Z,7.92
2016-10-09T04:37:22.963Z,7.9
2016-10-09T04:38:03.483Z,7.86
2016-10-09T04:38:44.022Z,7.89
2016-10-09T04:39:24.553Z,7.9
2016-10-09T04:40:05.079Z,7.9
2016-10-09T04:40:45.618Z,7.86
2016-10-09T04:41:26.152Z,7.83
2016-10-09T04:42:06.716Z,7.89
2016-10-09T04:42:47.244Z,7.82
2016-10-09T04:43:27.777Z,7.86
2016-10-09T04:44:08.305Z,7.86
2016-10-09T04:44:48.847Z,7.8
2016-10-09T04:45:29.377Z,7.8
2016-10-09T04:46:09.916Z,7.82
2016-10-09T04:46:50.460Z,7.83
2016-10-09T04:47:31.000Z,7.86
2016-10-09T04:48:11.536Z,7.87
2016-10-09T04:48:52.066Z,7.9
2016-10-09T04:49:32.581Z,7.83
2016-10-09T04:50:13.120Z,7.82
2016-10-09T04:50:53.649Z,7.82
2016-10-09T04:51:34.175Z,7.8
2016-10-09T04:52:14.703Z,7.83
2016-10-09T04:52:55.230Z,7.85
2016-10-09T04:53:35.779Z,7.82
2016-10-09T04:54:16.311Z,7.85
2016-10-09T04:54:56.829Z,7.85
2016-10-09T04:55:37.356Z,7.86
2016-10-09T04:56:17.882Z,7.86
2016-10-09T04:56:58.416Z,7.8
2016-10-09T04:57:38.924Z,7.89
2016-10-09T04:58:19.438Z,7.87
2016-10-09T04:58:59.962Z,7.82
2016-10-09T04:59:40.504Z,7.85
2016-10-09T05:00:21.033Z,7.87
2016-10-09T05:01:01.568Z,7.85
2016-10-09T05:01:42.089Z,7.87
2016-10-09T05:02:22.618Z,7.82
2016-10-09T05:03:03.151Z,7.86
2016-10-09T05:03:43.702Z,7.83
2016-10-09T05:04:24.265Z,7.83
2016-10-09T05:05:04.793Z,7.83
2016-10-09T05:05:45.331Z,7.83
2016-10-09T05:06:25.870Z,7.8
2016-10-09T05:07:06.446Z,7.86
2016-10-09T05:07:46.970Z,7.86
2016-10-09T05:08:27.489Z,7.83
2016-10-09T05:09:08.019Z,7.82
2016-10-09T05:09:48.546Z,7.86
2016-10-09T05:10:29.078Z,7.83
2016-10-09T05:11:09.627Z,7.82
2016-10-09T05:11:50.175Z,7.89
2016-10-09T05:12:30.694Z,7.82
2016-10-09T05:13:11.638Z,7.82
2016-10-09T05:13:51.762Z,7.79
2016-10-09T05:14:32.287Z,7.79
2016-10-09T05:15:12.804Z,7.8
2016-10-09T05:15:53.337Z,7.8
2016-10-09T05:16:33.868Z,7.82
2016-10-09T05:17:14.389Z,7.86
2016-10-09T05:17:54.921Z,7.82
2016-10-09T05:18:35.454Z,7.89
2016-10-09T05:19:15.981Z,7.79
2016-10-09T05:19:56.506Z,7.8
2016-10-09T05:20:37.044Z,7.79
2016-10-09T05:21:17.569Z,7.8
2016-10-09T05:21:58.100Z,7.79
2016-10-09T05:22:38.617Z,7.77
2016-10-09T05:23:19.151Z,7.8
2016-10-09T05:23:59.700Z,7.79
2016-10-09T05:24:40.214Z,7.79
2016-10-09T05:25:20.751Z,7.8
2016-10-09T05:26:01.294Z,7.77
2016-10-09T05:26:41.810Z,7.8
2016-10-09T05:27:22.341Z,7.77
2016-10-09T05:28:02.852Z,7.79
2016-10-09T05:28:43.351Z,7.82
2016-10-09T05:29:23.874Z,7.74
2016-10-09T05:30:04.399Z,7.8
2016-10-09T05:30:44.938Z,7.77
2016-10-09T05:31:26.361Z,7.71
2016-10-09T05:32:06.889Z,7.74
2016-10-09T05:32:47.416Z,7.74
2016-10-09T05:33:27.905Z,7.77
2016-10-09T05:34:08.433Z,7.71
2016-10-09T05:34:48.967Z,7.79
2016-10-09T05:35:29.481Z,7.8
2016-10-09T05:36:09.978Z,7.74
2016-10-09T05:36:50.522Z,7.74
2016-10-09T05:37:31.091Z,7.72
2016-10-09T05:38:11.629Z,7.68
2016-10-09T05:38:52.167Z,7.71
2016-10-09T05:39:32.713Z,7.74
2016-10-09T05:40:13.257Z,7.74
2016-10-09T05:40:53.798Z,7.75
2016-10-09T05:41:34.325Z,7.71
2016-10-09T05:42:14.846Z,7.74
2016-10-09T05:42:55.386Z,7.75
2016-10-09T05:43:35.947Z,7.77
2016-10-09T05:44:16.467Z,7.77
2016-10-09T05:44:56.973Z,7.79
2016-10-09T05:45:37.488Z,7.83
2016-10-09T05:46:18.011Z,7.72
2016-10-09T05:46:58.548Z,7.74
2016-10-09T05:47:39.076Z,7.74
2016-10-09T05:48:19.608Z,7.72
2016-10-09T05:49:00.127Z,7.72
2016-10-09T05:49:40.667Z,7.71
2016-10-09T05:50:21.209Z,7.72
2016-10-09T05:51:01.734Z,7.63
2016-10-09T05:51:42.273Z,7.68
2016-10-09T05:52:22.792Z,7.68
2016-10-09T05:53:03.311Z,7.72
2016-10-09T05:53:43.849Z,7.67
2016-10-09T05:54:24.387Z,7.71
2016-10-09T05:55:04.903Z,7.67
2016-10-09T05:55:45.484Z,7.71
2016-10-09T05:56:26.023Z,7.67
2016-10-09T05:57:06.548Z,7.69
2016-10-09T05:57:47.090Z,7.67
2016-10-09T05:58:27.627Z,7.67
2016-10-09T05:59:08.179Z,7.72
2016-10-09T05:59:48.838Z,7.67
2016-10-09T06:00:29.412Z,7.67
2016-10-09T06:01:09.944Z,7.67
2016-10-09T06:01:50.503Z,7.67
2016-10-09T06:02:31.100Z,7.69
2016-10-09T06:03:11.631Z,7.63
2016-10-09T06:03:52.181Z,7.71
2016-10-09T06:04:32.724Z,7.61
2016-10-09T06:05:13.263Z,7.68
2016-10-09T06:05:53.789Z,7.61
2016-10-09T06:06:34.302Z,7.58
2016-10-09T06:07:14.832Z,7.6
2016-10-09T06:07:55.352Z,7.57
2016-10-09T06:08:35.872Z,7.58
2016-10-09T06:09:16.412Z,7.53
2016-10-09T06:09:56.953Z,7.67
2016-10-09T06:10:37.474Z,7.55
2016-10-09T06:11:18.008Z,7.6
2016-10-09T06:11:58.543Z,7.58
2016-10-09T06:12:39.095Z,7.58
2016-10-09T06:13:19.586Z,7.61
2016-10-09T06:14:00.108Z,7.52
2016-10-09T06:14:40.648Z,7.57
2016-10-09T06:15:21.191Z,7.58
2016-10-09T06:16:01.710Z,7.5
2016-10-09T06:16:42.225Z,7.58
2016-10-09T06:17:22.763Z,7.52
2016-10-09T06:18:03.276Z,7.5
2016-10-09T06:18:43.839Z,7.57
2016-10-09T06:19:24.391Z,7.52
2016-10-09T06:20:04.907Z,7.55
2016-10-09T06:20:45.448Z,7.49
2016-10-09T06:21:25.985Z,7.48
2016-10-09T06:22:06.509Z,7.42
2016-10-09T06:22:47.061Z,7.5
2016-10-09T06:23:27.591Z,7.48
2016-10-09T06:24:08.143Z,7.5
2016-10-09T06:24:48.676Z,7.49
2016-10-09T06:25:29.219Z,7.34
2016-10-09T06:26:09.758Z,7.34
2016-10-09T06:26:50.293Z,7.46
2016-10-09T06:27:30.854Z,7.34
2016-10-09T06:28:11.389Z,7.46
2016-10-09T06:28:51.915Z,7.31
2016-10-09T06:29:32.649Z,7.35
2016-10-09T06:30:13.189Z,7.42
2016-10-09T06:30:53.717Z,7.32
2016-10-09T06:31:34.231Z,7.42
2016-10-09T06:32:14.775Z,7.4
2016-10-09T06:32:55.269Z,7.37
2016-10-09T06:33:35.816Z,7.37
2016-10-09T06:34:16.333Z,7.34
2016-10-09T06:34:56.906Z,7.28
2016-10-09T06:35:37.424Z,7.4
2016-10-09T06:36:17.962Z,7.3
2016-10-09T06:36:58.505Z,7.31
2016-10-09T06:37:39.066Z,7.34
2016-10-09T06:38:19.574Z,7.32
2016-10-09T06:39:00.084Z,7.31
2016-10-09T06:39:40.624Z,7.4
2016-10-09T06:40:21.160Z,7.4
2016-10-09T06:41:01.696Z,7.32
2016-10-09T06:41:42.238Z,7.45
2016-10-09T06:42:22.774Z,7.45
2016-10-09T06:43:03.308Z,7.43
2016-10-09T06:43:43.845Z,7.35
2016-10-09T06:44:24.371Z,7.43
2016-10-09T06:45:04.910Z,7.35
2016-10-09T06:45:45.461Z,7.4
2016-10-09T06:46:26.002Z,7.4
2016-10-09T06:47:06.542Z,7.46
2016-10-09T06:47:47.093Z,7.43
2016-10-09T06:48:27.629Z,7.42
2016-10-09T06:49:08.153Z,7.46
2016-10-09T06:49:48.669Z,7.39
2016-10-09T06:50:29.211Z,7.46
2016-10-09T06:51:09.732Z,7.27
2016-10-09T06:51:50.265Z,7.35
2016-10-09T06:52:30.780Z,7.43
2016-10-09T06:53:11.324Z,7.37
2016-10-09T06:53:51.862Z,7.48
2016-10-09T06:54:32.398Z,7.32
2016-10-09T06:55:12.932Z,7.39
2016-10-09T06:55:53.470Z,7.48
2016-10-09T06:56:34.020Z,7.55
2016-10-09T06:57:14.553Z,7.49
2016-10-09T06:57:55.087Z,7.5
2016-10-09T06:58:35.627Z,7.49
2016-10-09T06:59:16.172Z,7.43
2016-10-09T06:59:56.700Z,7.52
2016-10-09T07:00:37.237Z,7.53
2016-10-09T07:01:17.777Z,7.55
2016-10-09T07:01:58.324Z,7.52
2016-10-09T07:02:38.850Z,7.53
2016-10-09T07:03:19.387Z,7.55
2016-10-09T07:03:59.910Z,7.49
2016-10-09T07:04:40.438Z,7.52
2016-10-09T07:05:20.949Z,7.52
2016-10-09T07:06:01.474Z,7.55
2016-10-09T07:06:41.987Z,7.55
2016-10-09T07:07:22.515Z,7.61
2016-10-09T07:08:03.040Z,7.53
2016-10-09T07:08:43.557Z,7.61
2016-10-09T07:09:24.109Z,7.55
2016-10-09T07:10:04.627Z,7.61
2016-10-09T07:10:45.147Z,7.74
2016-10-09T07:11:25.672Z,7.67
2016-10-09T07:12:06.179Z,7.67
2016-10-09T07:12:46.698Z,7.71
2016-10-09T07:13:27.223Z,7.71
2016-10-09T07:14:07.764Z,7.74
2016-10-09T07:14:48.266Z,7.74
2016-10-09T07:15:28.821Z,7.75
2016-10-09T07:16:09.323Z,7.75
2016-10-09T07:16:49.883Z,7.74
2016-10-09T07:17:30.399Z,7.82
2016-10-09T07:18:10.942Z,7.86
2016-10-09T07:18:51.474Z,7.89
2016-10-09T07:19:31.997Z,7.77
2016-10-09T07:20:12.588Z,7.89
2016-10-09T07:20:53.137Z,7.89
2016-10-09T07:21:33.695Z,7.9
2016-10-09T07:22:14.337Z,7.87
2016-10-09T07:22:54.903Z,7.95
2016-10-09T07:23:35.531Z,7.95
2016-10-09T07:24:15.978Z,7.95
2016-10-09T07:24:56.505Z,8.02
2016-10-09T07:25:37.029Z,7.97
2016-10-09T07:26:17.569Z,7.98
2016-10-09T07:26:58.136Z,8.01
2016-10-09T07:27:38.674Z,8.07
2016-10-09T07:28:19.211Z,8.07
2016-10-09T07:28:59.781Z,8.12
2016-10-09T07:29:40.316Z,8.11
2016-10-09T07:30:20.846Z,8.19
2016-10-09T07:31:01.364Z,8.16
2016-10-09T07:31:41.908Z,8.22
2016-10-09T07:32:22.440Z,8.23
2016-10-09T07:33:02.981Z,8.23
2016-10-09T07:33:43.558Z,8.28
2016-10-09T07:34:24.105Z,8.33
2016-10-09T07:35:04.649Z,8.33
2016-10-09T07:35:45.199Z,8.28
2016-10-09T07:36:25.749Z,8.38
2016-10-09T07:37:06.278Z,8.36
2016-10-09T07:37:46.847Z,8.45
2016-10-09T07:38:27.378Z,8.5
2016-10-09T07:39:07.916Z,8.48
2016-10-09T07:39:48.465Z,8.55
2016-10-09T07:40:28.998Z,8.55
2016-10-09T07:41:09.519Z,8.68
2016-10-09T07:41:50.072Z,8.65
2016-10-09T07:42:30.586Z,8.68
2016-10-09T07:43:11.136Z,8.68
2016-10-09T07:43:51.668Z,8.71
2016-10-09T07:44:32.213Z,8.77
2016-10-09T07:45:12.735Z,8.76
2016-10-09T07:45:53.256Z,8.74
2016-10-09T07:46:33.784Z,8.76
2016-10-09T07:47:14.358Z,8.71
2016-10-09T07:47:54.925Z,8.79
2016-10-09T07:48:35.458Z,8.91
2016-10-09T07:49:16.016Z,8.87
2016-10-09T07:49:56.536Z,8.92
2016-10-09T07:50:37.075Z,8.95
2016-10-09T07:51:17.616Z,9.05
2016-10-09T07:51:58.154Z,8.98
2016-10-09T07:52:38.681Z,9.02
2016-10-09T07:53:19.229Z,9.14
2016-10-09T07:53:59.749Z,9.14
2016-10-09T07:54:40.280Z,9.21
2016-10-09T07:55:20.790Z,9.23
2016-10-09T07:56:01.335Z,9.23
2016-10-09T07:56:41.873Z,9.29
2016-10-09T07:57:22.411Z,9.31
2016-10-09T07:58:02.950Z,9.39
2016-10-09T07:58:43.517Z,9.48
2016-10-09T07:59:24.055Z,9.36
2016-10-09T08:00:04.602Z,9.51
2016-10-09T08:00:45.183Z,9.5
2016-10-09T08:01:25.717Z,9.57
2016-10-09T08:02:06.277Z,9.6
2016-10-09T08:02:46.821Z,9.61
2016-10-09T08:03:27.350Z,9.65
2016-10-09T08:04:07.887Z,9.76
2016-10-09T08:04:48.431Z,9.79
2016-10-09T08:05:29.010Z,9.74
2016-10-09T08:06:09.535Z,9.83
2016-10-09T08:06:50.071Z,9.81
2016-10-09T08:07:30.601Z,9.91
2016-10-09T08:08:11.143Z,9.87
2016-10-09T08:08:51.689Z,9.83
2016-10-09T08:09:32.226Z,9.89
2016-10-09T08:10:12.767Z,9.89
2016-10-09T08:10:53.297Z,9.93
2016-10-09T08:11:33.835Z,9.87
2016-10-09T08:12:14.380Z,9.87
2016-10-09T08:12:54.939Z,9.81
2016-10-09T08:13:35.485Z,9.83
2016-10-09T08:14:16.019Z,9.72
2016-10-09T08:14:56.537Z,9.76
2016-10-09T08:15:37.096Z,9.66
2016-10-09T08:16:17.619Z,9.64
2016-10-09T08:16:58.151Z,9.65
2016-10-09T08:17:38.686Z,9.69
2016-10-09T08:18:19.210Z,9.68
2016-10-09T08:18:59.767Z,9.65
2016-10-09T08:19:40.294Z,9.69
2016-10-09T08:20:20.809Z,9.64
2016-10-09T08:21:01.313Z,9.68
2016-10-09T08:21:41.854Z,9.66
2016-10-09T08:22:22.385Z,9.76
2016-10-09T08:23:02.930Z,9.76
2016-10-09T08:23:43.471Z,9.78
2016-10-09T08:24:24.040Z,9.75
2016-10-09T08:25:04.592Z,9.83
2016-10-09T08:25:45.158Z,9.89
2016-10-09T08:26:25.694Z,9.94
2016-10-09T08:27:06.196Z,9.9
2016-10-09T08:27:46.697Z,9.97
2016-10-09T08:28:27.209Z,9.96
2016-10-09T08:29:07.729Z,10.02
2016-10-09T08:29:48.260Z,10.08
2016-10-09T08:30:28.809Z,10.17
2016-10-09T08:31:09.319Z,10.26
2016-10-09T08:31:49.815Z,10.4
2016-10-09T08:32:30.367Z,10.41
2016-10-09T08:33:10.904Z,10.47
2016-10-09T08:33:51.451Z,10.59
2016-10-09T08:34:31.981Z,10.68
2016-10-09T08:35:12.500Z,10.78
2016-10-09T08:35:53.004Z,10.85
2016-10-09T08:36:33.523Z,10.96
2016-10-09T08:37:14.029Z,11.15
2016-10-09T08:37:54.504Z,11.21
2016-10-09T08:38:35.026Z,11.22
2016-10-09T08:39:15.564Z,11.21
2016-10-09T08:39:56.108Z,11.19
2016-10-09T08:40:36.644Z,11.15
2016-10-09T08:41:17.193Z,11.11
2016-10-09T08:41:57.702Z,11.17
2016-10-09T08:42:38.213Z,11.14
2016-10-09T08:43:18.753Z,11.07
2016-10-09T08:43:59.311Z,10.96
2016-10-09T08:44:39.855Z,10.86
2016-10-09T08:45:20.365Z,10.76
2016-10-09T08:46:00.899Z,10.78
2016-10-09T08:46:41.460Z,10.74
2016-10-09T08:47:22.030Z,10.61
2016-10-09T08:48:02.566Z,10.67
2016-10-09T08:48:43.108Z,10.64
2016-10-09T08:49:23.657Z,10.67
2016-10-09T08:50:04.238Z,10.74
2016-10-09T08:50:44.800Z,10.76
2016-10-09T08:51:25.343Z,10.88
2016-10-09T08:52:05.860Z,11.02
2016-10-09T08:52:46.438Z,11.22
2016-10-09T08:53:26.939Z,11.33
2016-10-09T08:54:07.487Z,11.46
2016-10-09T08:54:48.044Z,11.7
2016-10-09T08:55:28.540Z,11.95
2016-10-09T08:56:09.075Z,11.99
2016-10-09T08:56:49.620Z,12.34
2016-10-09T08:57:30.169Z,12.49
2016-10-09T08:58:10.715Z,12.57
2016-10-09T08:58:51.263Z,12.67
2016-10-09T08:59:31.835Z,12.83
2016-10-09T09:00:12.364Z,12.92
2016-10-09T09:00:52.900Z,13.08
2016-10-09T09:01:33.460Z,13.14
2016-10-09T09:02:13.975Z,13.23
2016-10-09T09:02:54.520Z,13.33
2016-10-09T09:03:35.073Z,13.57
2016-10-09T09:04:15.632Z,13.51
2016-10-09T09:04:56.183Z,13.7
2016-10-09T09:05:36.731Z,13.85
2016-10-09T09:06:17.233Z,13.89
2016-10-09T09:06:57.749Z,14.03
2016-10-09T09:07:38.279Z,14.15
2016-10-09T09:08:18.825Z,14.22
2016-10-09T09:08:59.368Z,14.25
2016-10-09T09:09:39.908Z,14.24
2016-10-09T09:10:20.449Z,14.27
2016-10-09T09:11:01.004Z,14.22
2016-10-09T09:11:41.662Z,14.27
2016-10-09T09:12:22.224Z,14.2
2016-10-09T09:13:02.731Z,14.24